createdAt,value
2018-06-05T00:01:00.113Z,91.30
2018-06-05T00:05:54.538Z,91.60
2018-06-05T00:10:49.266Z,91.80
2018-06-05T00:15:43.791Z,92.00
2018-06-05T00:20:38.560Z,92.00
2018-06-05T00:25:32.984Z,92.20
2018-06-05T00:30:27.540Z,92.50
2018-06-05T00:35:21.989Z,92.40
2018-06-05T00:40:16.706Z,92.50
2018-06-05T00:45:11.112Z,92.90
2018-06-05T00:50:05.612Z,93.00
2018-06-05T00:55:00.050Z,93.10
2018-06-05T00:59:54.628Z,92.90
2018-06-05T01:04:49.248Z,92.80
2018-06-05T01:09:43.886Z,92.70
2018-06-05T01:14:38.628Z,93.10
2018-06-05T01:19:33.056Z,92.90
2018-06-05T01:24:27.544Z,92.90
2018-06-05T01:29:21.978Z,92.70
2018-06-05T01:34:16.490Z,92.70
2018-06-05T01:39:10.985Z,92.60
2018-06-05T01:44:05.648Z,92.80
2018-06-05T01:53:54.249Z,92.50
2018-06-05T01:58:48.670Z,92.20
2018-06-05T02:03:43.321Z,92.10
2018-06-05T02:08:37.800Z,92.50
2018-06-05T02:13:32.216Z,92.60
2018-06-05T02:18:26.802Z,92.60
2018-06-05T02:23:21.353Z,92.50
2018-06-05T02:28:15.807Z,92.40
2018-06-05T02:33:10.391Z,92.20
2018-06-05T02:38:04.942Z,92.20
2018-06-05T02:42:59.759Z,92.00
2018-06-05T02:47:54.260Z,92.00
2018-06-05T02:52:48.779Z,92.10
2018-06-05T02:57:43.553Z,92.20
2018-06-05T03:02:37.981Z,92.30
2018-06-05T03:07:32.588Z,92.60
2018-06-05T03:12:27.020Z,92.70
2018-06-05T03:17:21.454Z,92.90
2018-06-05T03:22:15.870Z,92.60
2018-06-05T03:27:10.368Z,92.30
2018-06-05T03:32:04.867Z,92.20
2018-06-05T03:36:59.384Z,92.10
2018-06-05T03:41:53.828Z,92.80
2018-06-05T03:46:48.256Z,93.30
2018-06-05T03:51:42.665Z,93.30
2018-06-05T03:56:37.242Z,93.20
2018-06-05T04:01:31.708Z,93.30
2018-06-05T04:06:26.246Z,93.40
2018-06-05T04:11:20.684Z,93.50
2018-06-05T04:16:15.304Z,92.10
2018-06-05T04:21:09.712Z,90.30
2018-06-05T04:26:04.218Z,86.70
2018-06-05T04:30:59.157Z,82.00
2018-06-05T04:35:53.586Z,80.30
2018-06-05T04:40:48.084Z,78.80
2018-06-05T04:45:42.660Z,75.30
2018-06-05T04:50:37.789Z,70.10
2018-06-05T04:55:32.324Z,65.60
2018-06-05T05:00:26.800Z,62.70
2018-06-05T05:05:21.220Z,60.80
2018-06-05T05:10:15.927Z,60.60
2018-06-05T05:15:10.401Z,60.80
2018-06-05T05:20:05.099Z,60.50
2018-06-05T05:24:59.634Z,60.10
2018-06-05T05:29:54.317Z,58.10
2018-06-05T05:34:48.692Z,59.60
2018-06-05T05:39:43.486Z,57.70
2018-06-05T05:44:37.932Z,54.00
2018-06-05T05:49:32.348Z,52.70
2018-06-05T05:54:26.764Z,52.60
2018-06-05T05:59:21.177Z,51.00
2018-06-05T06:04:15.632Z,49.50
2018-06-05T06:09:10.041Z,49.70
2018-06-05T06:14:04.552Z,49.70
2018-06-05T06:18:59.000Z,51.90
2018-06-05T06:28:47.864Z,54.20
2018-06-05T06:33:42.357Z,55.50
2018-06-05T06:38:36.796Z,57.20
2018-06-05T06:43:31.825Z,58.90
2018-06-05T06:48:26.912Z,60.40
2018-06-05T06:53:21.561Z,62.60
2018-06-05T06:58:16.008Z,63.80
2018-06-05T07:03:12.682Z,64.20
2018-06-05T07:08:07.530Z,64.90
2018-06-05T07:13:02.058Z,65.00
2018-06-05T07:17:56.520Z,64.00
2018-06-05T07:22:50.932Z,63.10
2018-06-05T07:27:45.424Z,61.10
2018-06-05T07:32:40.010Z,59.60
2018-06-05T07:37:34.956Z,60.10
2018-06-05T07:42:29.392Z,60.00
2018-06-05T07:47:24.036Z,59.70
2018-06-05T07:52:18.472Z,63.20
2018-06-05T07:57:13.112Z,64.40
2018-06-05T08:02:07.560Z,63.40
2018-06-05T08:07:02.384Z,62.80
2018-06-05T08:11:57.015Z,62.10
2018-06-05T08:16:51.853Z,62.70
2018-06-05T08:21:46.252Z,62.40
2018-06-05T08:26:51.916Z,63.10
2018-06-05T08:31:48.996Z,61.10
2018-06-05T08:41:38.111Z,59.70
2018-06-05T08:46:33.017Z,61.10
2018-06-05T08:51:28.045Z,60.00
2018-06-05T08:56:22.502Z,59.20
2018-06-05T09:01:17.775Z,58.70
2018-06-05T09:06:12.305Z,58.90
2018-06-05T09:11:06.899Z,60.00
2018-06-05T09:16:01.908Z,61.10
2018-06-05T09:20:56.431Z,59.70
2018-06-05T09:25:51.460Z,59.50
2018-06-05T09:30:46.099Z,59.70
2018-06-05T09:35:45.518Z,60.10
2018-06-05T09:40:40.997Z,59.70
2018-06-05T09:45:37.211Z,60.60
2018-06-05T09:50:34.048Z,61.70
2018-06-05T09:55:29.921Z,61.80
2018-06-05T10:00:31.026Z,62.10
2018-06-05T10:05:26.581Z,64.40
2018-06-05T10:10:21.996Z,65.10
2018-06-05T10:15:17.478Z,63.20
2018-06-05T10:20:14.914Z,62.00
2018-06-05T10:25:15.565Z,61.40
2018-06-05T10:30:12.159Z,60.50
2018-06-05T10:35:07.427Z,59.40
2018-06-05T10:40:02.916Z,60.40
2018-06-05T10:44:58.219Z,59.40
2018-06-05T10:49:53.698Z,58.00
2018-06-05T10:54:50.979Z,58.00
2018-06-05T10:59:46.202Z,57.40
2018-06-05T11:04:43.162Z,56.70
2018-06-05T11:09:38.714Z,56.80
2018-06-05T11:14:33.559Z,56.30
2018-06-05T11:24:24.344Z,55.50
2018-06-05T11:29:20.518Z,55.30
2018-06-05T11:34:15.402Z,54.80
2018-06-05T11:39:10.686Z,53.80
2018-06-05T11:44:14.466Z,53.50
2018-06-05T11:49:09.763Z,52.40
2018-06-05T11:54:04.959Z,51.60
2018-06-05T11:58:59.701Z,50.00
2018-06-05T12:03:55.454Z,49.10
2018-06-05T12:08:50.204Z,48.50
2018-06-05T12:13:46.468Z,48.00
2018-06-05T12:18:42.123Z,47.90
2018-06-05T12:23:37.794Z,48.20
2018-06-05T12:28:32.625Z,47.70
2018-06-05T12:33:27.408Z,46.30
2018-06-05T12:38:22.347Z,47.10
2018-06-05T12:43:17.143Z,46.60
2018-06-05T12:48:15.697Z,47.10
2018-06-05T12:53:12.514Z,47.40
2018-06-05T12:58:07.623Z,47.70
2018-06-05T13:03:02.699Z,47.60
2018-06-05T13:07:58.578Z,47.70
2018-06-05T13:12:56.491Z,47.30
2018-06-05T13:17:51.740Z,47.10
2018-06-05T13:22:46.759Z,47.80
2018-06-05T13:27:41.446Z,48.50
2018-06-05T13:32:37.440Z,49.50
2018-06-05T13:37:32.752Z,48.20
2018-06-05T13:42:27.681Z,47.10
2018-06-05T13:47:22.312Z,47.70
2018-06-05T13:52:16.956Z,47.90
2018-06-05T13:57:11.391Z,47.40
2018-06-05T14:02:07.262Z,47.10
2018-06-05T14:07:01.732Z,46.40
2018-06-05T14:11:56.164Z,46.60
2018-06-05T14:16:58.053Z,45.60
2018-06-05T14:21:52.650Z,45.40
2018-06-05T14:26:47.310Z,45.40
2018-06-05T14:31:41.752Z,45.90
2018-06-05T14:36:36.281Z,46.50
2018-06-05T14:41:30.757Z,46.00
2018-06-05T14:46:25.198Z,44.20
2018-06-05T14:51:19.632Z,44.90
2018-06-05T14:56:14.049Z,44.90
2018-06-05T15:01:08.509Z,44.90
2018-06-05T15:06:03.057Z,45.00
2018-06-05T15:10:57.517Z,45.90
2018-06-05T15:15:51.988Z,44.00
2018-06-05T15:20:46.439Z,43.40
2018-06-05T15:25:43.381Z,42.10
2018-06-05T15:30:37.877Z,41.70
2018-06-05T15:35:32.319Z,39.60
2018-06-05T15:40:27.092Z,41.00
2018-06-05T15:45:21.773Z,42.30
2018-06-05T15:50:16.187Z,41.00
2018-06-05T15:55:10.745Z,39.40
2018-06-05T16:00:06.009Z,40.20
2018-06-05T16:05:01.541Z,40.50
2018-06-05T16:09:55.972Z,40.40
2018-06-05T16:14:50.376Z,40.10
2018-06-05T16:19:44.865Z,41.90
2018-06-05T16:24:39.266Z,40.30
2018-06-05T16:29:34.075Z,41.40
2018-06-05T16:34:28.498Z,41.90
2018-06-05T16:39:22.933Z,42.30
2018-06-05T16:44:17.572Z,43.30
2018-06-05T16:49:11.972Z,43.50
2018-06-05T16:54:06.792Z,43.60
2018-06-05T16:59:01.281Z,44.40
2018-06-05T17:08:49.965Z,44.10
2018-06-05T17:13:44.677Z,45.60
2018-06-05T17:18:40.685Z,45.00
2018-06-05T17:23:35.296Z,45.10
2018-06-05T17:28:30.310Z,45.60
2018-06-05T17:33:24.864Z,45.70
2018-06-05T17:38:19.398Z,46.40
2018-06-05T17:43:13.892Z,46.40
2018-06-05T17:48:08.320Z,46.90
2018-06-05T17:53:02.978Z,46.70
2018-06-05T17:57:57.657Z,46.70
2018-06-05T18:02:52.298Z,46.20
2018-06-05T18:07:46.862Z,47.00
2018-06-05T18:12:41.328Z,46.40
2018-06-05T18:17:35.853Z,46.80
2018-06-05T18:22:30.272Z,47.10
2018-06-05T18:27:24.776Z,47.20
2018-06-05T18:32:20.333Z,47.30
2018-06-05T18:37:15.653Z,47.00
2018-06-05T18:42:10.408Z,47.50
2018-06-05T18:47:05.063Z,47.80
2018-06-05T18:51:59.785Z,47.70
2018-06-05T18:56:54.678Z,48.50
2018-06-05T19:01:49.232Z,49.30
2018-06-05T19:06:43.764Z,49.70
2018-06-05T19:11:38.292Z,50.40
2018-06-05T19:16:32.740Z,51.20
2018-06-05T19:21:27.783Z,51.80
2018-06-05T19:26:22.402Z,51.70
2018-06-05T19:31:16.860Z,52.30
2018-06-05T19:36:11.317Z,52.80
2018-06-05T19:41:05.859Z,53.70
2018-06-05T19:46:00.301Z,54.40
2018-06-05T19:50:54.824Z,54.80
2018-06-05T19:55:49.368Z,55.10
2018-06-05T20:00:43.833Z,55.30
2018-06-05T20:05:38.525Z,55.40
2018-06-05T20:10:32.961Z,55.20
2018-06-05T20:15:27.461Z,55.20
2018-06-05T20:20:22.177Z,55.00
2018-06-05T20:25:16.708Z,55.20
2018-06-05T20:30:11.191Z,55.50
2018-06-05T20:35:05.720Z,55.20
2018-06-05T20:40:00.174Z,54.60
2018-06-05T20:44:54.766Z,55.20
2018-06-05T20:49:49.215Z,55.00
2018-06-05T20:54:47.845Z,55.10
2018-06-05T20:59:42.758Z,55.70
2018-06-05T21:04:37.373Z,55.50
2018-06-05T21:09:31.821Z,55.70
2018-06-05T21:14:26.399Z,56.10
2018-06-05T21:19:20.894Z,56.50
2018-06-05T21:24:15.391Z,57.30
2018-06-05T21:29:09.889Z,58.20
2018-06-05T21:34:04.444Z,58.70
2018-06-05T21:38:58.871Z,59.50
2018-06-05T21:48:48.537Z,61.40
2018-06-05T21:53:43.027Z,61.20
2018-06-05T22:03:31.748Z,60.60
2018-06-05T22:08:26.228Z,60.40
2018-06-05T22:13:20.633Z,61.00
2018-06-05T22:18:15.054Z,61.90
2018-06-05T22:23:09.591Z,62.30
2018-06-05T22:28:04.108Z,63.30
2018-06-05T22:32:58.620Z,63.90
2018-06-05T22:37:53.995Z,64.60
2018-06-05T22:42:48.445Z,65.90
2018-06-05T22:47:42.880Z,67.10
2018-06-05T22:52:37.430Z,68.00
2018-06-05T22:57:31.897Z,69.90
2018-06-05T23:02:26.489Z,69.50
2018-06-05T23:07:21.171Z,70.00
2018-06-05T23:12:15.597Z,71.40
2018-06-05T23:17:10.108Z,72.80
2018-06-05T23:22:07.771Z,73.40
2018-06-05T23:27:02.409Z,73.50
2018-06-05T23:31:56.817Z,74.30
2018-06-05T23:36:51.305Z,74.80
2018-06-05T23:41:46.171Z,75.30
2018-06-05T23:46:40.817Z,76.30
2018-06-05T23:51:35.353Z,76.10
2018-06-05T23:56:29.968Z,77.20
